Time;durP1;ratioP1;P1;durP2;ratioP2;P2;SDS_P1;SDS_P2;PMS_P1;PMS_P2;Temp;Humidity;BMP_temperature;BMP_pressure;BME280_temperature;BME280_humidity;BME280_pressure;Samples;Min_cycle;Max_cycle;Signal;HPM_P1;HPM_P2
2023/07/14 00:02:39;;;;;;;3.80;3.50;;;17.10;64.40;;;;;;6260580;28;20359;-81
2023/07/14 00:05:44;;;;;;;3.50;3.20;;;17.10;64.50;;;;;;6265123;28;20633;-84
2023/07/14 00:08:48;;;;;;;3.10;3.00;;;17.00;64.50;;;;;;6263733;28;20377;-83
2023/07/14 00:11:53;;;;;;;3.13;3.00;;;17.00;64.70;;;;;;6236630;28;20247;-84
2023/07/14 00:14:57;;;;;;;2.90;2.80;;;17.00;64.70;;;;;;6246703;28;20357;-81
2023/07/14 00:18:09;;;;;;;3.17;2.97;;;17.00;64.80;;;;;;6228645;28;20233;-82
2023/07/14 00:21:17;;;;;;;3.00;2.90;;;16.90;64.90;;;;;;6260214;28;20246;-82
2023/07/14 00:24:24;;;;;;;2.90;2.80;;;16.90;64.90;;;;;;6240993;28;20254;-83
2023/07/14 00:27:28;;;;;;;3.07;2.97;;;16.90;65.00;;;;;;6259601;28;20231;-84
2023/07/14 00:30:31;;;;;;;3.43;3.10;;;16.90;65.00;;;;;;6272960;28;20298;-85
2023/07/14 00:33:34;;;;;;;3.20;3.10;;;16.90;65.10;;;;;;6296118;28;20312;-82
2023/07/14 00:36:39;;;;;;;2.77;2.70;;;16.80;65.10;;;;;;6255771;28;20234;-80
2023/07/14 00:39:43;;;;;;;3.07;2.97;;;16.80;65.20;;;;;;6259010;28;20230;-82
2023/07/14 00:42:48;;;;;;;4.30;3.30;;;16.80;65.30;;;;;;6265615;28;20251;-82
2023/07/14 00:45:53;;;;;;;3.77;3.57;;;16.70;65.50;;;;;;6281798;28;20249;-79
2023/07/14 00:49:00;;;;;;;3.17;2.97;;;16.70;65.80;;;;;;6267100;28;20245;-82
2023/07/14 00:52:11;;;;;;;3.70;3.50;;;16.70;65.70;;;;;;6279949;28;20708;-80
2023/07/14 00:55:36;;;;;;;2.80;2.70;;;16.70;65.60;;;;;;6250209;28;20230;-81
2023/07/14 00:58:45;;;;;;;3.33;3.23;;;16.70;65.70;;;;;;6276182;28;20228;-82
2023/07/14 01:02:18;;;;;;;3.10;3.00;;;16.60;65.90;;;;;;6268094;28;20242;-79
2023/07/14 01:05:22;;;;;;;3.77;3.67;;;16.60;66.10;;;;;;6277048;28;20291;-83
2023/07/14 01:08:28;;;;;;;3.67;3.57;;;16.50;66.40;;;;;;6294487;28;20264;-81
2023/07/14 01:11:34;;;;;;;3.93;3.83;;;16.50;66.50;;;;;;6266441;28;20776;-82
2023/07/14 01:14:41;;;;;;;3.83;3.57;;;16.40;66.60;;;;;;6250230;28;20234;-83
2023/07/14 01:17:46;;;;;;;3.73;3.53;;;16.40;66.80;;;;;;6245283;28;20241;-84
2023/07/14 01:20:50;;;;;;;3.90;3.80;;;16.40;66.60;;;;;;6246039;28;20230;-80
2023/07/14 01:24:02;;;;;;;3.40;3.30;;;16.40;67.00;;;;;;6241866;28;20316;-81
2023/07/14 01:27:09;;;;;;;4.07;3.97;;;16.40;67.10;;;;;;6247288;28;20246;-83
2023/07/14 01:30:14;;;;;;;3.90;3.70;;;16.40;67.20;;;;;;6264691;28;20262;-83
2023/07/14 01:33:19;;;;;;;4.10;3.90;;;16.30;67.30;;;;;;6231467;28;20241;-82
2023/07/14 01:36:24;;;;;;;4.63;4.23;;;16.30;67.50;;;;;;6228248;28;20238;-81
2023/07/14 01:39:28;;;;;;;4.37;3.93;;;16.30;67.60;;;;;;6228844;28;20247;-83
2023/07/14 01:42:33;;;;;;;4.87;4.40;;;16.20;67.70;;;;;;6229978;28;20245;-82
2023/07/14 01:45:42;;;;;;;3.97;3.77;;;16.20;67.80;;;;;;6237162;28;20243;-84
2023/07/14 01:49:03;;;;;;;4.70;4.30;;;16.20;67.80;;;;;;6228696;28;20247;-82
2023/07/14 01:52:09;;;;;;;4.60;4.37;;;16.20;67.70;;;;;;6234146;28;20765;-82
2023/07/14 01:55:15;;;;;;;4.43;4.23;;;16.10;68.00;;;;;;6237559;28;20250;-82
2023/07/14 01:58:26;;;;;;;4.83;4.53;;;16.10;68.00;;;;;;6241331;28;20233;-81
2023/07/14 02:01:32;;;;;;;4.90;4.63;;;16.10;68.10;;;;;;6229084;28;20232;-83
2023/07/14 02:04:40;;;;;;;4.53;4.33;;;16.10;68.30;;;;;;6222360;28;20230;-81
2023/07/14 02:07:43;;;;;;;4.50;4.30;;;16.10;68.10;;;;;;6223871;28;20239;-83
2023/07/14 02:10:47;;;;;;;4.93;4.63;;;16.00;68.40;;;;;;6218254;28;20859;-82
2023/07/14 02:13:54;;;;;;;4.70;4.30;;;16.00;68.40;;;;;;6239544;28;20231;-85
2023/07/14 02:17:03;;;;;;;4.33;4.10;;;16.00;68.60;;;;;;6232559;28;20295;-85
2023/07/14 02:20:17;;;;;;;4.53;4.33;;;16.00;68.50;;;;;;6238084;28;20227;-85
2023/07/14 02:23:23;;;;;;;4.63;4.33;;;16.00;68.80;;;;;;6244818;28;20235;-83
2023/07/14 02:26:32;;;;;;;4.80;4.10;;;16.00;68.90;;;;;;6241494;28;20235;-81
2023/07/14 02:29:37;;;;;;;3.37;3.23;;;16.00;69.00;;;;;;6241682;28;20372;-83
2023/07/14 02:32:53;;;;;;;4.20;4.10;;;16.00;68.90;;;;;;6243069;28;20239;-81
2023/07/14 02:36:02;;;;;;;4.57;4.37;;;16.00;69.20;;;;;;6229994;28;20739;-83
2023/07/14 02:39:07;;;;;;;5.17;4.83;;;16.00;69.20;;;;;;6240750;28;20242;-84
2023/07/14 02:42:10;;;;;;;5.07;4.70;;;16.00;69.40;;;;;;6238169;28;20326;-83
2023/07/14 02:45:20;;;;;;;4.57;4.27;;;16.00;69.60;;;;;;6231731;28;20816;-84
2023/07/14 02:48:27;;;;;;;5.30;4.87;;;15.80;69.90;;;;;;6248964;28;20238;-83
2023/07/14 02:51:33;;;;;;;5.00;4.70;;;15.70;70.30;;;;;;6233749;28;20226;-83
2023/07/14 02:54:37;;;;;;;4.77;4.47;;;15.60;70.50;;;;;;6236299;28;20258;-85
2023/07/14 02:57:40;;;;;;;4.77;4.47;;;15.60;70.60;;;;;;6241158;28;20246;-83
2023/07/14 03:00:45;;;;;;;5.10;4.90;;;15.60;70.80;;;;;;6263730;28;20284;-82
2023/07/14 03:03:48;;;;;;;5.10;4.90;;;15.50;70.90;;;;;;6237326;28;20706;-84
2023/07/14 03:06:52;;;;;;;5.03;4.73;;;15.50;71.10;;;;;;6247270;28;20742;-81
2023/07/14 03:09:56;;;;;;;5.40;5.10;;;15.50;71.10;;;;;;6246774;28;20231;-81
2023/07/14 03:12:59;;;;;;;5.33;5.03;;;15.60;71.00;;;;;;6230658;28;20302;-81
2023/07/14 03:16:05;;;;;;;5.30;4.90;;;15.60;71.30;;;;;;6244071;28;20250;-81
2023/07/14 03:19:08;;;;;;;4.97;4.67;;;15.60;71.40;;;;;;6237921;28;20235;-81
2023/07/14 03:22:11;;;;;;;5.07;4.77;;;15.60;71.20;;;;;;6232760;28;20282;-80
2023/07/14 03:25:14;;;;;;;4.73;4.53;;;15.60;71.30;;;;;;6224824;28;20309;-79
2023/07/14 03:28:20;;;;;;;5.07;4.90;;;15.60;71.30;;;;;;6231542;28;20886;-80
2023/07/14 03:31:27;;;;;;;5.90;5.50;;;15.80;71.10;;;;;;6226796;28;20327;-78
2023/07/14 03:34:32;;;;;;;5.40;4.90;;;15.80;70.90;;;;;;6232826;28;20288;-80
2023/07/14 03:37:36;;;;;;;8.23;5.60;;;15.70;71.20;;;;;;6239701;28;20230;-80
2023/07/14 03:40:39;;;;;;;5.60;5.10;;;15.70;71.30;;;;;;6230106;28;20234;-81
2023/07/14 03:43:42;;;;;;;5.20;5.00;;;15.70;71.40;;;;;;6225914;28;20357;-79
2023/07/14 03:46:47;;;;;;;5.47;5.00;;;15.80;71.30;;;;;;6221910;28;20243;-81
2023/07/14 03:49:51;;;;;;;6.03;5.60;;;15.80;71.20;;;;;;6235868;28;20235;-80
2023/07/14 03:52:54;;;;;;;5.77;5.30;;;15.80;71.20;;;;;;6229611;28;20234;-78
2023/07/14 03:55:57;;;;;;;4.90;4.70;;;15.80;71.20;;;;;;6230795;28;20313;-79
2023/07/14 03:59:01;;;;;;;4.90;4.63;;;15.80;71.20;;;;;;6236297;28;20234;-78
2023/07/14 04:02:05;;;;;;;5.17;4.97;;;15.80;71.10;;;;;;6235239;28;20479;-79
2023/07/14 04:05:11;;;;;;;5.40;5.00;;;15.90;70.70;;;;;;6239738;28;20840;-79
2023/07/14 04:08:14;;;;;;;4.40;4.30;;;16.00;70.80;;;;;;6236528;28;20250;-80
2023/07/14 04:11:17;;;;;;;5.27;4.90;;;16.00;70.70;;;;;;6232493;28;20249;-80
2023/07/14 04:14:20;;;;;;;5.07;4.87;;;16.00;70.50;;;;;;6232153;28;20241;-77
2023/07/14 04:17:25;;;;;;;5.10;4.80;;;16.10;70.50;;;;;;6224701;28;20326;-80
2023/07/14 04:20:28;;;;;;;4.80;4.60;;;16.10;70.40;;;;;;6234086;28;20237;-80
2023/07/14 04:23:32;;;;;;;4.93;4.63;;;16.10;70.30;;;;;;6238951;28;20295;-79
2023/07/14 04:26:36;;;;;;;4.20;4.00;;;16.20;70.30;;;;;;6221773;28;20262;-79
2023/07/14 04:29:39;;;;;;;5.00;4.50;;;16.20;70.30;;;;;;6222731;28;20902;-79
2023/07/14 04:32:43;;;;;;;5.20;4.73;;;16.40;70.10;;;;;;6222887;28;20321;-80
2023/07/14 04:35:47;;;;;;;5.80;5.37;;;16.40;70.00;;;;;;6227174;28;20236;-78
2023/07/14 04:39:05;;;;;;;5.20;4.83;;;16.40;69.80;;;;;;6220510;28;20638;-79
2023/07/14 04:42:08;;;;;;;5.47;5.00;;;16.40;69.80;;;;;;6218640;28;20333;-79
2023/07/14 04:45:12;;;;;;;5.23;5.03;;;16.40;69.80;;;;;;6215817;28;20234;-77
2023/07/14 04:48:18;;;;;;;4.97;4.77;;;16.40;70.00;;;;;;6220162;28;20282;-79
2023/07/14 04:51:22;;;;;;;5.60;5.20;;;16.40;69.90;;;;;;6213968;28;20800;-80
2023/07/14 04:54:25;;;;;;;5.13;4.73;;;16.50;69.70;;;;;;6231545;28;20250;-77
2023/07/14 04:57:28;;;;;;;5.83;5.50;;;16.60;69.70;;;;;;6232765;28;20234;-80
2023/07/14 05:00:32;;;;;;;6.50;6.10;;;16.60;69.20;;;;;;6219075;28;20361;-81
2023/07/14 05:03:38;;;;;;;5.27;4.77;;;16.60;69.20;;;;;;6218782;28;20765;-81
2023/07/14 05:06:41;;;;;;;5.03;4.70;;;16.70;69.10;;;;;;6217501;28;20242;-81
2023/07/14 05:09:44;;;;;;;6.03;5.40;;;16.90;68.90;;;;;;6234025;28;20388;-80
2023/07/14 05:12:51;;;;;;;5.73;5.33;;;16.80;68.40;;;;;;6225222;28;20230;-83
2023/07/14 05:15:56;;;;;;;5.10;4.80;;;16.90;68.60;;;;;;6228394;28;20273;-80
2023/07/14 05:19:01;;;;;;;5.10;4.47;;;17.20;67.90;;;;;;6226692;28;20231;-81
2023/07/14 05:22:05;;;;;;;7.07;5.27;;;17.40;67.60;;;;;;6234162;28;20382;-84
2023/07/14 05:25:08;;;;;;;5.37;5.10;;;17.60;67.00;;;;;;6237705;28;20261;-83
2023/07/14 05:28:11;;;;;;;4.83;4.60;;;17.70;66.50;;;;;;6235609;28;20238;-83
2023/07/14 05:31:15;;;;;;;5.30;4.90;;;17.80;66.60;;;;;;6225275;28;20365;-83
2023/07/14 05:34:20;;;;;;;4.70;4.40;;;17.80;66.30;;;;;;6239002;28;20235;-83
2023/07/14 05:37:23;;;;;;;4.97;4.57;;;18.10;66.00;;;;;;6237092;28;20685;-83
2023/07/14 05:40:26;;;;;;;4.83;4.47;;;18.40;65.00;;;;;;6226800;28;20234;-85
2023/07/14 05:43:33;;;;;;;4.43;4.23;;;18.30;65.00;;;;;;6224555;28;20706;-81
2023/07/14 05:46:37;;;;;;;5.13;4.83;;;18.50;64.70;;;;;;6222113;28;20239;-84
2023/07/14 05:49:42;;;;;;;5.50;4.73;;;19.00;63.60;;;;;;6229235;28;20896;-82
2023/07/14 05:52:46;;;;;;;4.60;4.30;;;18.90;63.70;;;;;;6233472;28;20235;-83
2023/07/14 05:55:49;;;;;;;4.17;3.97;;;19.10;63.60;;;;;;6227198;28;20307;-81
2023/07/14 05:58:52;;;;;;;4.67;4.20;;;19.40;63.20;;;;;;6229058;28;20253;-82
2023/07/14 06:01:56;;;;;;;3.67;3.37;;;19.70;62.10;;;;;;6240639;28;20323;-83
2023/07/14 06:05:00;;;;;;;5.63;4.00;;;20.20;61.50;;;;;;6235300;28;20235;-83
2023/07/14 06:08:04;;;;;;;5.67;4.27;;;20.50;60.30;;;;;;6233118;28;20235;-80
2023/07/14 06:11:10;;;;;;;7.63;3.73;;;20.70;60.00;;;;;;6224030;28;20325;-80
2023/07/14 06:14:13;;;;;;;4.20;4.00;;;21.00;58.90;;;;;;6239895;28;20324;-83
2023/07/14 06:17:16;;;;;;;4.40;4.00;;;20.40;59.80;;;;;;6247051;28;20249;-80
2023/07/14 06:20:20;;;;;;;4.57;3.70;;;20.50;59.60;;;;;;6229413;28;20243;-81
2023/07/14 06:23:27;;;;;;;4.10;3.90;;;20.90;59.40;;;;;;6232093;28;20331;-81
2023/07/14 06:26:30;;;;;;;4.07;3.73;;;21.30;59.00;;;;;;6248238;28;20896;-81
2023/07/14 06:29:33;;;;;;;3.20;3.10;;;21.50;58.20;;;;;;6231231;28;20247;-83
2023/07/14 06:32:37;;;;;;;3.40;3.20;;;21.70;58.00;;;;;;6228972;28;20314;-81
2023/07/14 06:35:42;;;;;;;3.73;3.43;;;21.90;57.10;;;;;;6237595;28;20230;-81
2023/07/14 06:38:45;;;;;;;8.60;3.70;;;22.10;57.50;;;;;;6240420;28;20823;-82
2023/07/14 06:41:49;;;;;;;4.83;3.73;;;22.40;56.70;;;;;;6241430;28;20334;-80
2023/07/14 06:44:52;;;;;;;3.40;3.10;;;22.40;55.30;;;;;;6230274;28;20254;-82
2023/07/14 06:47:55;;;;;;;4.77;3.20;;;22.60;55.50;;;;;;6234104;28;20235;-83
2023/07/14 06:51:00;;;;;;;4.73;3.40;;;22.80;55.40;;;;;;6223006;28;20756;-81
2023/07/14 06:54:03;;;;;;;4.73;4.30;;;22.20;55.90;;;;;;6239822;28;20229;-82
2023/07/14 06:57:08;;;;;;;4.80;3.80;;;22.10;55.80;;;;;;6239111;28;20746;-82
2023/07/14 07:00:12;;;;;;;4.00;3.57;;;22.00;55.80;;;;;;6238001;28;20307;-81
2023/07/14 07:03:16;;;;;;;3.90;3.70;;;22.20;56.60;;;;;;6240938;28;20234;-82
2023/07/14 07:06:20;;;;;;;3.93;3.50;;;22.30;55.70;;;;;;6235490;28;20310;-81
2023/07/14 07:09:24;;;;;;;3.60;3.20;;;22.70;54.30;;;;;;6238699;28;20308;-83
2023/07/14 07:12:27;;;;;;;4.93;4.03;;;23.00;54.30;;;;;;6236555;28;20615;-83
2023/07/14 07:15:30;;;;;;;3.73;3.50;;;22.70;54.70;;;;;;6249007;28;20242;-83
2023/07/14 07:18:34;;;;;;;3.80;3.70;;;23.00;54.70;;;;;;6227536;28;20847;-80
2023/07/14 07:21:40;;;;;;;3.50;3.20;;;22.80;54.30;;;;;;6237376;28;20245;-83
2023/07/14 07:24:43;;;;;;;3.20;3.00;;;23.00;53.50;;;;;;6248571;28;20238;-82
2023/07/14 07:27:47;;;;;;;4.03;3.77;;;22.90;54.30;;;;;;6236487;28;20230;-82
2023/07/14 07:30:50;;;;;;;3.30;3.10;;;22.70;53.60;;;;;;6232305;28;20254;-80
2023/07/14 07:33:53;;;;;;;3.17;3.00;;;22.10;53.90;;;;;;6222194;28;20250;-82
2023/07/14 07:36:58;;;;;;;2.90;2.80;;;21.70;53.80;;;;;;6210128;28;20880;-81
2023/07/14 07:40:04;;;;;;;3.43;3.13;;;21.50;55.20;;;;;;6236265;28;20234;-82
2023/07/14 07:43:07;;;;;;;3.17;2.93;;;21.70;54.80;;;;;;6230895;28;20326;-81
2023/07/14 07:46:11;;;;;;;4.00;2.80;;;21.80;54.60;;;;;;6246755;28;20239;-82
2023/07/14 07:49:15;;;;;;;2.80;2.60;;;21.70;54.60;;;;;;6247634;28;20313;-82
2023/07/14 07:52:20;;;;;;;3.20;3.00;;;22.00;54.50;;;;;;6245450;28;20235;-81
2023/07/14 07:55:23;;;;;;;3.20;3.00;;;21.90;54.00;;;;;;6234655;28;20230;-80
2023/07/14 07:58:27;;;;;;;3.10;2.80;;;21.90;54.40;;;;;;6239773;28;20226;-81
2023/07/14 08:01:30;;;;;;;2.70;2.50;;;22.00;54.20;;;;;;6225711;28;20297;-82
2023/07/14 08:04:33;;;;;;;2.73;2.63;;;22.10;54.80;;;;;;6230622;28;20246;-82
2023/07/14 08:07:37;;;;;;;3.07;2.87;;;22.30;54.50;;;;;;6235381;28;20231;-80
2023/07/14 08:10:42;;;;;;;3.80;3.43;;;22.50;54.00;;;;;;6256585;28;20243;-80
2023/07/14 08:13:45;;;;;;;4.10;2.93;;;22.60;53.90;;;;;;6244508;28;20792;-81
2023/07/14 08:16:49;;;;;;;4.03;3.07;;;22.50;54.10;;;;;;6230110;28;20231;-82
2023/07/14 08:19:52;;;;;;;3.67;3.13;;;22.30;53.70;;;;;;6234772;28;20253;-80
2023/07/14 08:22:57;;;;;;;3.43;2.90;;;22.20;53.70;;;;;;6229663;28;20243;-80
2023/07/14 08:26:04;;;;;;;3.10;2.83;;;22.30;54.00;;;;;;6245630;28;20702;-79
2023/07/14 08:29:10;;;;;;;2.67;2.50;;;22.50;53.40;;;;;;6242750;28;20699;-80
2023/07/14 08:32:15;;;;;;;2.90;2.80;;;22.40;53.00;;;;;;6236610;28;20304;-79
2023/07/14 08:35:20;;;;;;;4.57;3.00;;;22.50;53.60;;;;;;6237484;28;20245;-78
2023/07/14 08:38:24;;;;;;;2.83;2.73;;;22.30;52.20;;;;;;6233187;28;20366;-80
2023/07/14 08:41:30;;;;;;;3.10;2.70;;;22.10;53.00;;;;;;6220881;28;20319;-82
2023/07/14 08:44:48;;;;;;;2.93;2.47;;;22.10;52.70;;;;;;6233025;28;20246;-81
2023/07/14 08:48:05;;;;;;;2.80;2.60;;;22.40;53.00;;;;;;6222230;28;20326;-79
2023/07/14 08:51:18;;;;;;;4.67;2.60;;;22.30;52.20;;;;;;6236103;28;20739;-81
2023/07/14 08:54:28;;;;;;;9.07;2.80;;;22.50;52.40;;;;;;6218966;28;20238;-79
2023/07/14 08:57:42;;;;;;;5.33;3.03;;;22.60;52.10;;;;;;6244865;28;20238;-81
2023/07/14 09:01:02;;;;;;;3.07;2.87;;;22.90;52.30;;;;;;6232594;28;20298;-80
2023/07/14 09:04:11;;;;;;;3.20;2.87;;;23.20;51.70;;;;;;6241350;28;20397;-80
2023/07/14 09:07:17;;;;;;;2.87;2.77;;;23.30;51.10;;;;;;6231850;28;20246;-79
2023/07/14 09:10:31;;;;;;;3.20;2.90;;;23.20;51.10;;;;;;6236810;28;20265;-80
2023/07/14 09:13:46;;;;;;;4.27;2.63;;;23.40;50.50;;;;;;6233048;28;20239;-80
2023/07/14 09:16:56;;;;;;;3.37;3.10;;;23.60;50.60;;;;;;6236014;28;20276;-78
2023/07/14 09:20:29;;;;;;;3.43;2.53;;;23.70;50.70;;;;;;6245646;28;20755;-79
2023/07/14 09:24:15;;;;;;;3.10;2.90;;;23.60;50.10;;;;;;6249399;28;20853;-82
2023/07/14 09:27:23;;;;;;;3.10;2.90;;;23.60;49.40;;;;;;6158271;28;20228;-80
2023/07/14 09:30:28;;;;;;;2.90;2.70;;;23.60;49.60;;;;;;6231842;28;20605;-81
2023/07/14 09:33:41;;;;;;;2.83;2.63;;;23.80;48.80;;;;;;6219612;28;20314;-79
2023/07/14 09:36:45;;;;;;;2.80;2.60;;;23.90;49.40;;;;;;6218971;28;20239;-80
2023/07/14 09:40:02;;;;;;;2.33;2.23;;;24.20;49.70;;;;;;6237096;28;20793;-81
2023/07/14 09:43:09;;;;;;;4.87;2.63;;;24.40;48.40;;;;;;6232629;28;20246;-82
2023/07/14 09:46:17;;;;;;;3.17;2.70;;;24.70;48.80;;;;;;6233906;28;20249;-80
2023/07/14 09:49:32;;;;;;;2.57;2.57;;;24.70;48.30;;;;;;6234996;28;20258;-81
2023/07/14 09:52:56;;;;;;;2.70;2.60;;;24.50;47.60;;;;;;6235449;28;20781;-81
2023/07/14 09:56:04;;;;;;;6.07;2.70;;;24.50;48.00;;;;;;6232492;28;20713;-81
2023/07/14 09:59:24;;;;;;;2.63;2.43;;;24.30;49.30;;;;;;6222118;28;20239;-82
2023/07/14 10:02:30;;;;;;;2.47;2.37;;;24.50;48.80;;;;;;6234042;28;20243;-82
2023/07/14 10:05:51;;;;;;;3.40;2.53;;;24.40;48.50;;;;;;6219881;28;20235;-80
2023/07/14 10:08:56;;;;;;;4.53;3.07;;;24.60;47.70;;;;;;6231589;28;20309;-81
2023/07/14 10:12:05;;;;;;;2.50;2.40;;;24.70;48.20;;;;;;6235199;28;21031;-81
2023/07/14 10:15:33;;;;;;;2.83;2.83;;;24.90;47.90;;;;;;6236305;28;20302;-81
2023/07/14 10:18:48;;;;;;;3.13;2.93;;;25.00;47.30;;;;;;6220847;28;20322;-82
2023/07/14 10:21:55;;;;;;;2.73;2.63;;;25.00;47.20;;;;;;6236530;28;20642;-82
2023/07/14 10:25:01;;;;;;;2.37;2.27;;;24.20;48.50;;;;;;6239795;28;20242;-82
2023/07/14 10:28:08;;;;;;;3.23;3.03;;;24.40;48.40;;;;;;6235902;28;20668;-83
2023/07/14 10:31:25;;;;;;;3.00;2.90;;;24.40;48.30;;;;;;6247777;28;20250;-82
2023/07/14 10:34:50;;;;;;;3.10;2.87;;;24.40;48.10;;;;;;6240117;28;20313;-81
2023/07/14 10:38:02;;;;;;;2.60;2.50;;;24.30;48.20;;;;;;6225763;28;20240;-82
2023/07/14 10:41:09;;;;;;;2.87;2.73;;;24.20;48.10;;;;;;6228327;28;20251;-81
2023/07/14 10:44:20;;;;;;;3.00;2.30;;;24.50;47.70;;;;;;6229147;28;20309;-81
2023/07/14 10:47:30;;;;;;;3.17;2.87;;;24.50;48.90;;;;;;6245931;28;20231;-83
2023/07/14 10:50:37;;;;;;;3.20;2.73;;;24.40;47.60;;;;;;6215250;28;20321;-81
2023/07/14 10:53:45;;;;;;;2.90;2.70;;;24.40;47.70;;;;;;6239449;28;20237;-83
2023/07/14 10:56:56;;;;;;;5.93;3.40;;;25.00;47.30;;;;;;6227862;28;20237;-83
2023/07/14 11:00:19;;;;;;;3.37;2.90;;;25.20;47.00;;;;;;6243545;28;20262;-82
2023/07/14 11:03:30;;;;;;;5.07;3.10;;;25.50;47.00;;;;;;6244151;28;20364;-82
2023/07/14 11:06:34;;;;;;;4.97;3.07;;;25.60;46.10;;;;;;6221848;28;20237;-82
2023/07/14 11:09:37;;;;;;;3.30;3.10;;;25.10;46.70;;;;;;6239384;28;20305;-81
2023/07/14 11:12:53;;;;;;;2.67;2.57;;;25.30;46.80;;;;;;6233794;28;20778;-80
2023/07/14 11:16:07;;;;;;;2.50;2.40;;;25.60;46.80;;;;;;6220903;28;20816;-82
2023/07/14 11:19:17;;;;;;;3.07;2.90;;;25.70;46.80;;;;;;6239588;28;20322;-81
2023/07/14 11:22:48;;;;;;;2.77;2.60;;;25.80;45.50;;;;;;6232579;28;20255;-82
2023/07/14 11:25:59;;;;;;;3.07;2.97;;;25.90;45.50;;;;;;6248474;28;20307;-81
2023/07/14 11:29:11;;;;;;;2.87;2.77;;;26.20;45.40;;;;;;6236192;28;20325;-81
2023/07/14 11:32:22;;;;;;;2.90;2.80;;;26.00;45.50;;;;;;6244314;28;20304;-82
2023/07/14 11:35:32;;;;;;;3.00;2.87;;;26.10;43.40;;;;;;6234627;28;20223;-80
2023/07/14 11:38:45;;;;;;;2.93;2.83;;;26.10;43.30;;;;;;6243338;28;20234;-80
2023/07/14 11:41:48;;;;;;;3.40;3.20;;;26.10;44.50;;;;;;6229556;28;20882;-81
2023/07/14 11:44:54;;;;;;;3.97;3.10;;;26.30;45.10;;;;;;6232560;28;20327;-82
2023/07/14 11:47:59;;;;;;;3.23;3.03;;;26.40;45.50;;;;;;6231156;28;20263;-80
2023/07/14 11:51:07;;;;;;;3.07;2.90;;;26.30;43.90;;;;;;6226290;28;20250;-83
2023/07/14 11:54:17;;;;;;;3.20;3.10;;;26.40;44.00;;;;;;6226224;28;20255;-80
2023/07/14 11:57:21;;;;;;;2.50;2.40;;;26.10;44.10;;;;;;6232726;28;20262;-82
2023/07/14 12:00:27;;;;;;;3.50;3.30;;;26.00;45.40;;;;;;6224802;28;20225;-83
2023/07/14 12:03:32;;;;;;;3.70;3.50;;;26.10;44.50;;;;;;6222734;28;20239;-83
2023/07/14 12:06:50;;;;;;;6.60;3.20;;;26.00;44.80;;;;;;6236580;28;20237;-80
2023/07/14 12:09:58;;;;;;;3.53;3.23;;;26.40;44.20;;;;;;6243254;28;20270;-82
2023/07/14 12:13:34;;;;;;;3.47;3.13;;;26.40;44.00;;;;;;6241068;28;20233;-82
2023/07/14 12:16:47;;;;;;;3.87;3.40;;;26.50;44.10;;;;;;6242404;28;20240;-82
2023/07/14 12:19:55;;;;;;;4.30;3.90;;;26.40;44.60;;;;;;6236607;28;20227;-83
2023/07/14 12:23:18;;;;;;;3.60;3.50;;;26.40;44.20;;;;;;6244278;28;20335;-81
2023/07/14 12:26:41;;;;;;;3.90;3.70;;;26.30;44.50;;;;;;6221750;28;20303;-81
2023/07/14 12:29:44;;;;;;;3.37;3.27;;;26.00;44.20;;;;;;6243146;28;20231;-80
2023/07/14 12:33:03;;;;;;;7.33;3.30;;;25.80;45.40;;;;;;6230707;28;20245;-80
2023/07/14 12:36:14;;;;;;;3.13;3.03;;;25.60;45.10;;;;;;6236239;28;20241;-80
2023/07/14 12:39:20;;;;;;;3.77;3.57;;;25.80;45.00;;;;;;6238917;28;20235;-80
2023/07/14 12:42:23;;;;;;;3.47;3.30;;;25.60;45.40;;;;;;6232254;28;20242;-80
2023/07/14 12:45:26;;;;;;;4.07;3.87;;;25.60;45.70;;;;;;6233628;28;20293;-82
2023/07/14 12:48:32;;;;;;;3.67;3.37;;;26.00;44.00;;;;;;6240572;28;20600;-82
2023/07/14 12:51:37;;;;;;;3.63;3.50;;;26.00;44.40;;;;;;6241437;28;20826;-81
2023/07/14 12:54:45;;;;;;;3.87;3.60;;;26.40;44.30;;;;;;6241457;28;20226;-82
2023/07/14 12:57:50;;;;;;;4.07;3.87;;;26.60;44.30;;;;;;6219682;28;20927;-80
2023/07/14 13:00:55;;;;;;;4.07;3.77;;;26.20;43.50;;;;;;6236992;28;20730;-80
2023/07/14 13:04:01;;;;;;;3.60;3.50;;;26.40;44.60;;;;;;6227609;28;20401;-82
2023/07/14 13:07:07;;;;;;;3.63;3.53;;;26.40;43.40;;;;;;6223177;28;20246;-81
2023/07/14 13:10:24;;;;;;;3.90;3.77;;;26.20;43.90;;;;;;6237165;28;20222;-82
2023/07/14 13:13:33;;;;;;;4.77;4.33;;;25.80;44.30;;;;;;6221361;28;20232;-80
2023/07/14 13:16:39;;;;;;;4.07;3.87;;;25.60;44.90;;;;;;6224454;28;20753;-81
2023/07/14 13:19:45;;;;;;;4.07;3.87;;;25.60;44.40;;;;;;6239249;28;20246;-82
2023/07/14 13:23:16;;;;;;;4.83;4.43;;;25.60;44.60;;;;;;6242248;28;20238;-82
2023/07/14 13:26:20;;;;;;;4.33;4.03;;;25.80;44.20;;;;;;6235875;28;20257;-81
2023/07/14 13:29:25;;;;;;;3.87;3.77;;;25.80;44.00;;;;;;6220639;28;20242;-83
2023/07/14 13:32:29;;;;;;;3.90;3.80;;;26.00;44.70;;;;;;6237403;28;20876;-82
2023/07/14 13:35:33;;;;;;;3.27;3.17;;;26.40;44.80;;;;;;6237536;28;20963;-81
2023/07/14 13:38:38;;;;;;;4.23;4.03;;;26.70;44.00;;;;;;6222143;28;21105;-81
2023/07/14 13:41:47;;;;;;;4.70;4.30;;;26.90;42.80;;;;;;6242458;28;20606;-80
2023/07/14 13:44:52;;;;;;;4.63;4.33;;;26.80;43.90;;;;;;6236609;28;20321;-81
2023/07/14 13:47:57;;;;;;;4.33;3.73;;;26.70;43.30;;;;;;6220417;28;20635;-81
2023/07/14 13:51:00;;;;;;;4.37;4.17;;;26.80;43.30;;;;;;6243000;28;20257;-82
2023/07/14 13:54:15;;;;;;;4.70;4.40;;;26.90;43.10;;;;;;6244871;28;20238;-81
2023/07/14 13:57:19;;;;;;;4.67;4.30;;;26.90;43.00;;;;;;6233504;28;20281;-82
2023/07/14 14:00:24;;;;;;;4.60;4.20;;;27.10;43.40;;;;;;6235725;28;20250;-81
2023/07/14 14:03:29;;;;;;;4.70;4.27;;;27.20;43.60;;;;;;6235033;28;20269;-81
2023/07/14 14:06:33;;;;;;;4.73;4.43;;;26.90;43.20;;;;;;6244754;28;20280;-82
2023/07/14 14:09:36;;;;;;;4.50;4.20;;;26.60;42.90;;;;;;6234706;28;20253;-82
2023/07/14 14:12:41;;;;;;;4.73;4.50;;;26.70;43.30;;;;;;6227015;28;20245;-81
2023/07/14 14:15:46;;;;;;;4.27;4.07;;;26.90;43.00;;;;;;6246316;28;20239;-82
2023/07/14 14:18:52;;;;;;;4.67;4.27;;;27.40;42.30;;;;;;6226989;28;20246;-81
2023/07/14 14:21:59;;;;;;;4.40;4.10;;;27.60;42.50;;;;;;6228459;28;20312;-82
2023/07/14 14:25:02;;;;;;;3.70;3.40;;;27.90;42.90;;;;;;6234107;28;20291;-80
2023/07/14 14:28:07;;;;;;;3.93;3.77;;;28.10;43.20;;;;;;6238087;28;20238;-80
2023/07/14 14:31:12;;;;;;;4.03;3.73;;;28.00;41.70;;;;;;6230046;28;20245;-81
2023/07/14 14:34:17;;;;;;;3.60;3.40;;;28.00;42.20;;;;;;6230057;28;20231;-83
2023/07/14 14:37:20;;;;;;;4.40;4.03;;;28.10;41.90;;;;;;6236436;28;20236;-81
2023/07/14 14:40:24;;;;;;;4.60;4.33;;;28.10;41.70;;;;;;6232610;28;20275;-81
2023/07/14 14:43:30;;;;;;;4.30;4.03;;;28.10;41.70;;;;;;6240348;28;20381;-82
2023/07/14 14:46:33;;;;;;;3.57;3.30;;;28.00;41.90;;;;;;6247702;28;20957;-82
2023/07/14 14:49:37;;;;;;;4.38;4.07;;;27.90;42.20;;;;;;6217573;28;20231;-82
2023/07/14 14:52:40;;;;;;;4.37;4.17;;;28.10;42.40;;;;;;6234565;28;20297;-81
2023/07/14 14:55:45;;;;;;;3.70;3.60;;;28.10;42.00;;;;;;6235695;28;20828;-81
2023/07/14 14:58:55;;;;;;;4.23;4.03;;;28.10;41.50;;;;;;6226794;28;20325;-82
2023/07/14 15:01:59;;;;;;;3.93;3.73;;;27.90;40.80;;;;;;6248399;28;20243;-81
2023/07/14 15:05:02;;;;;;;4.23;3.93;;;27.90;42.30;;;;;;6243631;28;20329;-83
2023/07/14 15:08:05;;;;;;;4.73;3.83;;;27.70;40.90;;;;;;6235248;28;20245;-80
2023/07/14 15:11:10;;;;;;;4.43;4.10;;;27.80;41.10;;;;;;6235390;28;20731;-82
2023/07/14 15:14:27;;;;;;;4.23;3.93;;;27.90;41.10;;;;;;6228862;28;20322;-82
2023/07/14 15:17:33;;;;;;;3.43;3.33;;;27.70;41.40;;;;;;6240668;28;20367;-81
2023/07/14 15:20:36;;;;;;;3.83;3.73;;;27.90;41.70;;;;;;6240383;28;20242;-80
2023/07/14 15:23:40;;;;;;;4.57;4.37;;;28.00;40.50;;;;;;6243940;28;20369;-80
2023/07/14 15:26:45;;;;;;;3.47;3.37;;;27.60;41.20;;;;;;6233884;28;20735;-81
2023/07/14 15:29:50;;;;;;;3.83;3.63;;;27.40;42.00;;;;;;6242612;28;20239;-84
2023/07/14 15:32:55;;;;;;;3.83;3.67;;;27.50;41.70;;;;;;6218602;28;20711;-82
2023/07/14 15:35:58;;;;;;;4.40;4.10;;;27.60;41.20;;;;;;6224459;28;20239;-80
2023/07/14 15:39:01;;;;;;;4.10;3.90;;;27.50;41.00;;;;;;6223622;28;20249;-82
2023/07/14 15:42:12;;;;;;;4.20;3.90;;;27.50;41.30;;;;;;6220307;28;20235;-83
2023/07/14 15:45:19;;;;;;;3.97;3.87;;;27.20;41.70;;;;;;6234997;28;20234;-83
2023/07/14 15:48:25;;;;;;;3.87;3.77;;;27.20;41.60;;;;;;6222328;28;20251;-82
2023/07/14 15:51:43;;;;;;;3.70;3.60;;;27.20;41.60;;;;;;6226117;28;20246;-82
2023/07/14 15:54:47;;;;;;;3.70;3.50;;;27.00;41.70;;;;;;6227754;28;20242;-82
2023/07/14 15:57:51;;;;;;;3.53;3.40;;;27.20;41.90;;;;;;6240067;28;20715;-82
2023/07/14 16:00:59;;;;;;;3.97;3.73;;;27.20;41.50;;;;;;6238274;28;20254;-84
2023/07/14 16:04:12;;;;;;;4.00;3.80;;;27.40;41.80;;;;;;6242758;28;20309;-83
2023/07/14 16:07:17;;;;;;;4.50;4.30;;;27.40;41.80;;;;;;6234305;28;20239;-82
2023/07/14 16:10:21;;;;;;;3.57;3.47;;;27.50;40.90;;;;;;6223227;28;20233;-83
2023/07/14 16:13:27;;;;;;;4.03;3.77;;;27.50;40.90;;;;;;6241454;28;20858;-83
2023/07/14 16:16:31;;;;;;;3.87;3.67;;;27.60;41.40;;;;;;6229885;28;20249;-84